sensor_id;sensor_type;location;lat;lon;timestamp;pressure;altitude;pressure_sealevel;temperature;humidity
82013;BME280;71535;53.354;15.030;2023-07-29T00:00:37;100675.44;;;12.67;89.09
82013;BME280;71535;53.354;15.030;2023-07-29T00:03:03;100681.50;;;12.67;88.47
82013;BME280;71535;53.354;15.030;2023-07-29T00:05:28;100683.94;;;12.58;88.70
82013;BME280;71535;53.354;15.030;2023-07-29T00:07:53;100675.03;;;12.45;89.08
82013;BME280;71535;53.354;15.030;2023-07-29T00:10:19;100654.97;;;12.41;89.74
82013;BME280;71535;53.354;15.030;2023-07-29T00:12:44;100680.25;;;12.45;89.15
82013;BME280;71535;53.354;15.030;2023-07-29T00:15:11;100676.75;;;12.43;88.76
82013;BME280;71535;53.354;15.030;2023-07-29T00:17:36;100687.16;;;12.43;88.94
82013;BME280;71535;53.354;15.030;2023-07-29T00:20:02;100670.50;;;12.35;89.56
82013;BME280;71535;53.354;15.030;2023-07-29T00:22:27;100669.94;;;12.51;88.61
82013;BME280;71535;53.354;15.030;2023-07-29T00:24:53;100674.25;;;12.49;88.57
82013;BME280;71535;53.354;15.030;2023-07-29T00:27:23;100679.47;;;12.49;88.36
82013;BME280;71535;53.354;15.030;2023-07-29T00:29:49;100677.41;;;12.33;89.03
82013;BME280;71535;53.354;15.030;2023-07-29T00:32:14;100664.19;;;12.24;91.24
82013;BME280;71535;53.354;15.030;2023-07-29T00:34:39;100676.69;;;12.41;89.65
82013;BME280;71535;53.354;15.030;2023-07-29T00:37:05;100660.03;;;12.33;89.52
82013;BME280;71535;53.354;15.030;2023-07-29T00:39:31;100652.38;;;12.41;88.74
82013;BME280;71535;53.354;15.030;2023-07-29T00:41:57;100665.44;;;12.44;88.51
82013;BME280;71535;53.354;15.030;2023-07-29T00:44:22;100626.59;;;12.11;89.10
82013;BME280;71535;53.354;15.030;2023-07-29T00:46:49;100658.19;;;12.26;90.24
82013;BME280;71535;53.354;15.030;2023-07-29T00:49:15;100645.88;;;12.19;89.79
82013;BME280;71535;53.354;15.030;2023-07-29T00:51:41;100639.81;;;12.21;89.57
82013;BME280;71535;53.354;15.030;2023-07-29T00:54:06;100660.72;;;12.23;89.91
82013;BME280;71535;53.354;15.030;2023-07-29T00:56:32;100659.03;;;12.25;89.81
82013;BME280;71535;53.354;15.030;2023-07-29T00:58:58;100662.72;;;12.38;90.10
82013;BME280;71535;53.354;15.030;2023-07-29T01:01:30;100654.94;;;12.39;89.87
82013;BME280;71535;53.354;15.030;2023-07-29T01:03:55;100645.03;;;12.21;90.30
82013;BME280;71535;53.354;15.030;2023-07-29T01:08:51;100654.00;;;12.36;89.85
82013;BME280;71535;53.354;15.030;2023-07-29T01:11:41;100654.72;;;12.27;90.23
82013;BME280;71535;53.354;15.030;2023-07-29T01:14:21;100661.63;;;12.25;90.43
82013;BME280;71535;53.354;15.030;2023-07-29T01:16:55;100634.53;;;12.17;89.78
82013;BME280;71535;53.354;15.030;2023-07-29T01:19:54;100650.28;;;12.23;90.51
82013;BME280;71535;53.354;15.030;2023-07-29T01:22:23;100639.69;;;12.14;90.81
82013;BME280;71535;53.354;15.030;2023-07-29T01:24:49;100630.16;;;12.14;90.07
82013;BME280;71535;53.354;15.030;2023-07-29T01:27:14;100631.09;;;12.18;89.81
82013;BME280;71535;53.354;15.030;2023-07-29T01:29:40;100648.59;;;12.25;89.56
82013;BME280;71535;53.354;15.030;2023-07-29T01:32:17;100655.59;;;12.28;89.60
82013;BME280;71535;53.354;15.030;2023-07-29T01:35:00;100629.22;;;12.11;89.76
82013;BME280;71535;53.354;15.030;2023-07-29T01:37:31;100641.31;;;12.07;90.14
82013;BME280;71535;53.354;15.030;2023-07-29T01:39:58;100639.69;;;12.14;89.54
82013;BME280;71535;53.354;15.030;2023-07-29T01:42:25;100650.81;;;12.05;90.71
82013;BME280;71535;53.354;15.030;2023-07-29T01:44:51;100639.50;;;12.03;90.28
82013;BME280;71535;53.354;15.030;2023-07-29T01:47:17;100661.38;;;12.11;90.43
82013;BME280;71535;53.354;15.030;2023-07-29T01:49:42;100641.94;;;11.95;91.41
82013;BME280;71535;53.354;15.030;2023-07-29T01:52:08;100635.94;;;11.98;90.66
82013;BME280;71535;53.354;15.030;2023-07-29T01:54:33;100662.47;;;12.23;90.37
82013;BME280;71535;53.354;15.030;2023-07-29T01:56:58;100633.31;;;11.99;90.67
82013;BME280;71535;53.354;15.030;2023-07-29T01:59:24;100664.09;;;12.17;90.62
82013;BME280;71535;53.354;15.030;2023-07-29T02:01:49;100661.47;;;12.17;90.23
82013;BME280;71535;53.354;15.030;2023-07-29T02:04:15;100622.88;;;11.96;90.02
82013;BME280;71535;53.354;15.030;2023-07-29T02:06:40;100641.16;;;11.99;90.79
82013;BME280;71535;53.354;15.030;2023-07-29T02:09:06;100636.75;;;11.97;91.08
82013;BME280;71535;53.354;15.030;2023-07-29T02:11:31;100642.09;;;12.03;90.73
82013;BME280;71535;53.354;15.030;2023-07-29T02:13:57;100629.84;;;11.99;90.96
82013;BME280;71535;53.354;15.030;2023-07-29T02:16:22;100645.78;;;12.14;90.57
82013;BME280;71535;53.354;15.030;2023-07-29T02:18:49;100631.63;;;12.00;90.55
82013;BME280;71535;53.354;15.030;2023-07-29T02:21:15;100649.19;;;12.12;90.98
82013;BME280;71535;53.354;15.030;2023-07-29T02:23:40;100629.78;;;11.94;90.98
82013;BME280;71535;53.354;15.030;2023-07-29T02:26:06;100634.97;;;11.94;90.53
82013;BME280;71535;53.354;15.030;2023-07-29T02:28:32;100635.03;;;11.96;90.99
82013;BME280;71535;53.354;15.030;2023-07-29T02:31:23;100660.41;;;12.08;91.07
82013;BME280;71535;53.354;15.030;2023-07-29T02:33:49;100662.22;;;12.10;91.49
82013;BME280;71535;53.354;15.030;2023-07-29T02:36:15;100646.22;;;11.92;91.75
82013;BME280;71535;53.354;15.030;2023-07-29T02:38:41;100658.59;;;12.04;91.01
82013;BME280;71535;53.354;15.030;2023-07-29T02:41:08;100659.44;;;12.01;90.77
82013;BME280;71535;53.354;15.030;2023-07-29T02:43:35;100671.75;;;12.08;89.86
82013;BME280;71535;53.354;15.030;2023-07-29T02:46:01;100667.25;;;12.01;90.27
82013;BME280;71535;53.354;15.030;2023-07-29T02:48:26;100650.38;;;11.85;90.24
82013;BME280;71535;53.354;15.030;2023-07-29T02:50:51;100670.38;;;11.85;90.70
82013;BME280;71535;53.354;15.030;2023-07-29T02:53:17;100671.84;;;11.73;91.26
82013;BME280;71535;53.354;15.030;2023-07-29T02:55:42;100659.75;;;11.75;90.61
82013;BME280;71535;53.354;15.030;2023-07-29T02:58:08;100646.31;;;11.55;90.64
82013;BME280;71535;53.354;15.030;2023-07-29T03:00:33;100648.97;;;11.58;90.59
82013;BME280;71535;53.354;15.030;2023-07-29T03:02:59;100657.22;;;11.78;90.60
82013;BME280;71535;53.354;15.030;2023-07-29T03:05:27;100663.25;;;11.76;90.77
82013;BME280;71535;53.354;15.030;2023-07-29T03:07:52;100639.50;;;11.62;90.68
82013;BME280;71535;53.354;15.030;2023-07-29T03:10:18;100650.13;;;11.73;90.77
82013;BME280;71535;53.354;15.030;2023-07-29T03:12:43;100668.41;;;11.74;90.74
82013;BME280;71535;53.354;15.030;2023-07-29T03:15:09;100670.19;;;11.77;90.96
82013;BME280;71535;53.354;15.030;2023-07-29T03:17:34;100670.25;;;11.78;91.87
82013;BME280;71535;53.354;15.030;2023-07-29T03:19:59;100659.66;;;11.71;90.75
82013;BME280;71535;53.354;15.030;2023-07-29T03:22:25;100658.69;;;11.67;91.10
82013;BME280;71535;53.354;15.030;2023-07-29T03:24:50;100671.09;;;11.79;91.35
82013;BME280;71535;53.354;15.030;2023-07-29T03:27:16;100657.00;;;11.69;91.50
82013;BME280;71535;53.354;15.030;2023-07-29T03:29:42;100663.25;;;11.76;91.28
82013;BME280;71535;53.354;15.030;2023-07-29T03:32:07;100651.09;;;11.76;91.69
82013;BME280;71535;53.354;15.030;2023-07-29T03:34:33;100653.00;;;11.85;92.56
82013;BME280;71535;53.354;15.030;2023-07-29T03:37:00;100648.66;;;11.84;91.57
82013;BME280;71535;53.354;15.030;2023-07-29T03:39:26;100679.44;;;12.02;91.83
82013;BME280;71535;53.354;15.030;2023-07-29T03:41:51;100655.09;;;12.00;91.64
82013;BME280;71535;53.354;15.030;2023-07-29T03:44:17;100677.06;;;12.14;91.46
82013;BME280;71535;53.354;15.030;2023-07-29T03:46:44;100670.97;;;12.14;91.29
82013;BME280;71535;53.354;15.030;2023-07-29T03:49:09;100651.69;;;12.06;91.17
82013;BME280;71535;53.354;15.030;2023-07-29T03:51:34;100640.44;;;12.07;91.56
82013;BME280;71535;53.354;15.030;2023-07-29T03:54:00;100677.34;;;12.30;91.16
82013;BME280;71535;53.354;15.030;2023-07-29T03:56:25;100663.41;;;12.28;91.58
82013;BME280;71535;53.354;15.030;2023-07-29T03:58:52;100676.44;;;12.28;91.39
82013;BME280;71535;53.354;15.030;2023-07-29T04:01:17;100672.34;;;12.42;92.37
82013;BME280;71535;53.354;15.030;2023-07-29T04:03:47;100630.19;;;12.16;91.31
82013;BME280;71535;53.354;15.030;2023-07-29T04:06:12;100669.09;;;12.52;91.64
82013;BME280;71535;53.354;15.030;2023-07-29T04:08:38;100649.84;;;12.47;91.51
82013;BME280;71535;53.354;15.030;2023-07-29T04:11:03;100648.22;;;12.52;91.23
82013;BME280;71535;53.354;15.030;2023-07-29T04:13:29;100634.50;;;12.63;91.27
82013;BME280;71535;53.354;15.030;2023-07-29T04:15:54;100653.09;;;12.84;91.38
82013;BME280;71535;53.354;15.030;2023-07-29T04:18:19;100648.78;;;12.88;91.10
82013;BME280;71535;53.354;15.030;2023-07-29T04:20:45;100646.16;;;12.85;91.09
82013;BME280;71535;53.354;15.030;2023-07-29T04:23:10;100639.13;;;12.80;91.23
82013;BME280;71535;53.354;15.030;2023-07-29T04:25:36;100661.13;;;12.98;90.83
82013;BME280;71535;53.354;15.030;2023-07-29T04:28:01;100653.38;;;13.01;91.14
82013;BME280;71535;53.354;15.030;2023-07-29T04:30:28;100643.63;;;12.91;90.88
82013;BME280;71535;53.354;15.030;2023-07-29T04:32:54;100664.72;;;13.05;91.19
82013;BME280;71535;53.354;15.030;2023-07-29T04:35:19;100672.69;;;13.14;90.75
82013;BME280;71535;53.354;15.030;2023-07-29T04:37:45;100673.94;;;13.36;91.44
82013;BME280;71535;53.354;15.030;2023-07-29T04:40:10;100673.19;;;13.46;90.54
82013;BME280;71535;53.354;15.030;2023-07-29T04:42:36;100670.84;;;13.65;90.78
82013;BME280;71535;53.354;15.030;2023-07-29T04:45:02;100656.00;;;13.62;91.04
82013;BME280;71535;53.354;15.030;2023-07-29T04:47:27;100655.28;;;13.75;90.62
82013;BME280;71535;53.354;15.030;2023-07-29T04:49:53;100666.81;;;13.93;90.98
82013;BME280;71535;53.354;15.030;2023-07-29T04:52:18;100634.50;;;13.85;91.02
82013;BME280;71535;53.354;15.030;2023-07-29T04:54:44;100628.44;;;13.89;91.31
82013;BME280;71535;53.354;15.030;2023-07-29T04:57:10;100652.16;;;14.04;91.62
82013;BME280;71535;53.354;15.030;2023-07-29T04:59:35;100646.88;;;14.01;91.54
82013;BME280;71535;53.354;15.030;2023-07-29T05:02:01;100642.59;;;14.08;90.50
82013;BME280;71535;53.354;15.030;2023-07-29T05:04:26;100670.63;;;14.21;90.37
82013;BME280;71535;53.354;15.030;2023-07-29T05:06:51;100669.78;;;14.20;90.08
82013;BME280;71535;53.354;15.030;2023-07-29T05:09:18;100677.75;;;14.33;89.99
82013;BME280;71535;53.354;15.030;2023-07-29T05:11:45;100660.28;;;14.30;90.57
82013;BME280;71535;53.354;15.030;2023-07-29T05:14:13;100684.78;;;14.40;90.04
82013;BME280;71535;53.354;15.030;2023-07-29T05:16:38;100675.31;;;14.51;89.42
82013;BME280;71535;53.354;15.030;2023-07-29T05:19:03;100656.06;;;14.45;90.35
82013;BME280;71535;53.354;15.030;2023-07-29T05:21:29;100674.53;;;14.60;90.35
82013;BME280;71535;53.354;15.030;2023-07-29T05:23:55;100664.22;;;14.75;90.80
82013;BME280;71535;53.354;15.030;2023-07-29T05:26:20;100660.72;;;14.73;90.31
82013;BME280;71535;53.354;15.030;2023-07-29T05:28:45;100637.03;;;14.59;90.79
82013;BME280;71535;53.354;15.030;2023-07-29T05:31:11;100633.56;;;14.62;90.97
82013;BME280;71535;53.354;15.030;2023-07-29T05:33:36;100638.00;;;14.69;91.47
82013;BME280;71535;53.354;15.030;2023-07-29T05:36:02;100639.78;;;14.75;90.95
82013;BME280;71535;53.354;15.030;2023-07-29T05:38:27;100657.38;;;14.91;92.68
82013;BME280;71535;53.354;15.030;2023-07-29T05:40:53;100639.94;;;14.95;89.44
82013;BME280;71535;53.354;15.030;2023-07-29T05:43:18;100663.53;;;15.03;89.36
82013;BME280;71535;53.354;15.030;2023-07-29T05:45:44;100668.72;;;14.96;89.55
82013;BME280;71535;53.354;15.030;2023-07-29T05:48:09;100662.69;;;15.04;89.79
82013;BME280;71535;53.354;15.030;2023-07-29T05:50:34;100657.41;;;15.00;89.56
82013;BME280;71535;53.354;15.030;2023-07-29T05:53:00;100663.59;;;15.10;89.41
82013;BME280;71535;53.354;15.030;2023-07-29T05:55:25;100654.03;;;15.11;89.30
82013;BME280;71535;53.354;15.030;2023-07-29T05:57:51;100646.19;;;15.14;89.59
82013;BME280;71535;53.354;15.030;2023-07-29T06:00:16;100666.34;;;15.30;88.92
82013;BME280;71535;53.354;15.030;2023-07-29T06:02:42;100654.19;;;15.40;88.72
82013;BME280;71535;53.354;15.030;2023-07-29T06:05:07;100636.69;;;15.34;89.93
82013;BME280;71535;53.354;15.030;2023-07-29T06:07:33;100633.25;;;15.45;89.36
82013;BME280;71535;53.354;15.030;2023-07-29T06:09:59;100649.94;;;15.57;88.79
82013;BME280;71535;53.354;15.030;2023-07-29T06:12:25;100642.97;;;15.67;88.67
82013;BME280;71535;53.354;15.030;2023-07-29T06:14:51;100643.84;;;15.71;89.17
82013;BME280;71535;53.354;15.030;2023-07-29T06:17:16;100649.19;;;15.80;88.91
82013;BME280;71535;53.354;15.030;2023-07-29T06:19:42;100662.31;;;15.89;88.30
82013;BME280;71535;53.354;15.030;2023-07-29T06:22:07;100648.31;;;15.81;88.99
82013;BME280;71535;53.354;15.030;2023-07-29T06:24:33;100669.34;;;15.95;88.32
82013;BME280;71535;53.354;15.030;2023-07-29T06:26:58;100644.88;;;15.96;88.54
82013;BME280;71535;53.354;15.030;2023-07-29T06:29:23;100648.41;;;16.13;88.26
82013;BME280;71535;53.354;15.030;2023-07-29T06:31:49;100663.34;;;16.45;87.85
82013;BME280;71535;53.354;15.030;2023-07-29T06:34:19;100664.25;;;16.76;86.73
82013;BME280;71535;53.354;15.030;2023-07-29T06:36:45;100639.78;;;16.85;85.51
82013;BME280;71535;53.354;15.030;2023-07-29T06:39:10;100660.75;;;17.10;84.70
82013;BME280;71535;53.354;15.030;2023-07-29T06:41:35;100664.25;;;17.19;86.16
82013;BME280;71535;53.354;15.030;2023-07-29T06:44:01;100633.59;;;17.12;84.24
82013;BME280;71535;53.354;15.030;2023-07-29T06:46:26;100645.91;;;16.95;85.65
82013;BME280;71535;53.354;15.030;2023-07-29T06:48:51;100660.75;;;17.17;84.89
82013;BME280;71535;53.354;15.030;2023-07-29T06:51:17;100659.88;;;17.08;86.27
82013;BME280;71535;53.354;15.030;2023-07-29T06:53:42;100658.13;;;17.14;85.95
82013;BME280;71535;53.354;15.030;2023-07-29T06:56:08;100642.38;;;17.17;84.81
82013;BME280;71535;53.354;15.030;2023-07-29T06:58:34;100633.53;;;17.40;84.68
82013;BME280;71535;53.354;15.030;2023-07-29T07:01:00;100644.88;;;17.64;86.01
82013;BME280;71535;53.354;15.030;2023-07-29T07:03:25;100629.13;;;17.56;84.45
82013;BME280;71535;53.354;15.030;2023-07-29T07:05:50;100637.75;;;17.81;85.26
82013;BME280;71535;53.354;15.030;2023-07-29T07:08:16;100637.78;;;17.86;84.13
82013;BME280;71535;53.354;15.030;2023-07-29T07:10:41;100615.00;;;17.86;84.08
82013;BME280;71535;53.354;15.030;2023-07-29T07:13:07;100634.16;;;18.10;84.41
82013;BME280;71535;53.354;15.030;2023-07-29T07:15:32;100629.69;;;18.21;83.95
82013;BME280;71535;53.354;15.030;2023-07-29T07:17:58;100620.03;;;18.23;83.03
82013;BME280;71535;53.354;15.030;2023-07-29T07:20:23;100591.97;;;18.19;83.48
82013;BME280;71535;53.354;15.030;2023-07-29T07:22:48;100626.91;;;18.44;83.71
82013;BME280;71535;53.354;15.030;2023-07-29T07:25:14;100608.50;;;18.43;84.02
82013;BME280;71535;53.354;15.030;2023-07-29T07:27:39;100618.81;;;18.69;83.65
82013;BME280;71535;53.354;15.030;2023-07-29T07:30:05;100604.81;;;18.64;82.94
82013;BME280;71535;53.354;15.030;2023-07-29T07:32:31;100611.78;;;18.69;82.51
82013;BME280;71535;53.354;15.030;2023-07-29T07:34:56;100603.75;;;18.89;83.34
82013;BME280;71535;53.354;15.030;2023-07-29T07:37:22;100610.47;;;19.18;82.48
82013;BME280;71535;53.354;15.030;2023-07-29T07:39:47;100599.59;;;19.47;81.96
82013;BME280;71535;53.354;15.030;2023-07-29T07:42:12;100584.56;;;19.55;81.56
82013;BME280;71535;53.354;15.030;2023-07-29T07:44:38;100589.56;;;19.77;80.02
82013;BME280;71535;53.354;15.030;2023-07-29T07:47:03;100611.59;;;19.76;79.87
82013;BME280;71535;53.354;15.030;2023-07-29T07:49:29;100604.19;;;19.99;81.08
82013;BME280;71535;53.354;15.030;2023-07-29T07:51:54;100591.81;;;20.05;79.42
82013;BME280;71535;53.354;15.030;2023-07-29T07:54:20;100582.78;;;20.21;77.57
82013;BME280;71535;53.354;15.030;2023-07-29T07:56:45;100599.16;;;20.45;77.45
82013;BME280;71535;53.354;15.030;2023-07-29T07:59:10;100585.69;;;20.62;77.37
82013;BME280;71535;53.354;15.030;2023-07-29T08:01:39;100581.19;;;20.68;75.28
82013;BME280;71535;53.354;15.030;2023-07-29T08:04:05;100596.88;;;20.76;75.17
82013;BME280;71535;53.354;15.030;2023-07-29T08:06:31;100591.09;;;20.52;73.49
82013;BME280;71535;53.354;15.030;2023-07-29T08:08:57;100571.06;;;20.39;74.55
82013;BME280;71535;53.354;15.030;2023-07-29T08:11:23;100581.53;;;20.44;73.24
82013;BME280;71535;53.354;15.030;2023-07-29T08:13:48;100598.09;;;20.53;73.76
82013;BME280;71535;53.354;15.030;2023-07-29T08:16:14;100568.44;;;20.37;72.81
82013;BME280;71535;53.354;15.030;2023-07-29T08:18:39;100566.31;;;20.58;73.29
82013;BME280;71535;53.354;15.030;2023-07-29T08:21:04;100587.09;;;20.83;71.82
82013;BME280;71535;53.354;15.030;2023-07-29T08:23:32;100556.81;;;21.01;70.46
82013;BME280;71535;53.354;15.030;2023-07-29T08:25:59;100557.06;;;21.32;69.17
82013;BME280;71535;53.354;15.030;2023-07-29T08:28:38;100550.13;;;21.70;69.09
82013;BME280;71535;53.354;15.030;2023-07-29T08:31:04;100546.19;;;21.88;66.65
82013;BME280;71535;53.354;15.030;2023-07-29T08:33:31;100546.06;;;21.94;65.49
82013;BME280;71535;53.354;15.030;2023-07-29T08:35:56;100550.88;;;22.14;68.09
82013;BME280;71535;53.354;15.030;2023-07-29T08:38:22;100560.69;;;22.09;65.74
82013;BME280;71535;53.354;15.030;2023-07-29T08:41:31;100554.50;;;22.10;66.87
82013;BME280;71535;53.354;15.030;2023-07-29T08:46:33;100571.31;;;22.46;65.88
82013;BME280;71535;53.354;15.030;2023-07-29T08:48:59;100555.84;;;21.89;65.12
82013;BME280;71535;53.354;15.030;2023-07-29T08:51:24;100557.13;;;21.72;65.54
82013;BME280;71535;53.354;15.030;2023-07-29T08:53:51;100569.50;;;21.70;66.50
82013;BME280;71535;53.354;15.030;2023-07-29T08:56:16;100547.38;;;21.73;67.14
82013;BME280;71535;53.354;15.030;2023-07-29T08:58:43;100557.78;;;21.82;68.07
82013;BME280;71535;53.354;15.030;2023-07-29T09:01:08;100551.34;;;21.94;65.51
82013;BME280;71535;53.354;15.030;2023-07-29T09:03:34;100556.34;;;22.06;65.34
82013;BME280;71535;53.354;15.030;2023-07-29T09:08:28;100548.06;;;22.20;61.85
82013;BME280;71535;53.354;15.030;2023-07-29T09:10:55;100534.75;;;22.25;61.17
82013;BME280;71535;53.354;15.030;2023-07-29T09:13:21;100559.25;;;22.69;60.04
82013;BME280;71535;53.354;15.030;2023-07-29T09:15:47;100547.50;;;22.79;61.73
82013;BME280;71535;53.354;15.030;2023-07-29T09:18:18;100546.03;;;22.67;59.67
82013;BME280;71535;53.354;15.030;2023-07-29T09:20:47;100545.78;;;23.11;59.61
82013;BME280;71535;53.354;15.030;2023-07-29T09:23:13;100533.38;;;22.79;59.24
82013;BME280;71535;53.354;15.030;2023-07-29T09:25:39;100533.44;;;22.75;59.12
82013;BME280;71535;53.354;15.030;2023-07-29T09:28:12;100526.47;;;22.71;60.41
82013;BME280;71535;53.354;15.030;2023-07-29T09:30:39;100538.97;;;23.01;59.05
82013;BME280;71535;53.354;15.030;2023-07-29T09:33:04;100540.31;;;23.17;61.73
82013;BME280;71535;53.354;15.030;2023-07-29T09:35:33;100537.50;;;23.22;61.25
82013;BME280;71535;53.354;15.030;2023-07-29T09:37:59;100539.94;;;23.29;58.04
82013;BME280;71535;53.354;15.030;2023-07-29T09:40:24;100526.47;;;23.37;58.38
82013;BME280;71535;53.354;15.030;2023-07-29T09:42:51;100527.31;;;23.38;57.88
82013;BME280;71535;53.354;15.030;2023-07-29T09:45:21;100512.69;;;23.54;58.53
82013;BME280;71535;53.354;15.030;2023-07-29T09:47:47;100505.50;;;23.58;55.78
82013;BME280;71535;53.354;15.030;2023-07-29T09:50:13;100507.41;;;23.82;55.25
82013;BME280;71535;53.354;15.030;2023-07-29T09:52:39;100513.34;;;24.17;56.07
82013;BME280;71535;53.354;15.030;2023-07-29T09:55:04;100500.22;;;24.39;56.79
82013;BME280;71535;53.354;15.030;2023-07-29T09:57:32;100490.66;;;24.33;57.14
82013;BME280;71535;53.354;15.030;2023-07-29T09:59:57;100493.38;;;25.54;53.18
82013;BME280;71535;53.354;15.030;2023-07-29T10:02:23;100500.28;;;25.37;52.13
82013;BME280;71535;53.354;15.030;2023-07-29T10:04:52;100482.16;;;24.50;55.23
82013;BME280;71535;53.354;15.030;2023-07-29T10:07:18;100489.19;;;24.25;54.30
82013;BME280;71535;53.354;15.030;2023-07-29T10:09:45;100469.25;;;24.11;55.04
82013;BME280;71535;53.354;15.030;2023-07-29T10:12:13;100469.19;;;24.14;55.90
82013;BME280;71535;53.354;15.030;2023-07-29T10:14:38;100474.66;;;25.10;56.30
82013;BME280;71535;53.354;15.030;2023-07-29T10:17:07;100479.06;;;24.63;53.64
82013;BME280;71535;53.354;15.030;2023-07-29T10:19:34;100467.56;;;24.35;52.97
82013;BME280;71535;53.354;15.030;2023-07-29T10:22:03;100446.84;;;24.45;54.61
82013;BME280;71535;53.354;15.030;2023-07-29T10:24:32;100460.91;;;24.74;53.06
82013;BME280;71535;53.354;15.030;2023-07-29T10:27:00;100439.19;;;25.10;53.65
82013;BME280;71535;53.354;15.030;2023-07-29T10:29:31;100450.81;;;25.77;52.53
82013;BME280;71535;53.354;15.030;2023-07-29T10:32:02;100442.13;;;25.27;51.51
82013;BME280;71535;53.354;15.030;2023-07-29T10:34:28;100437.41;;;25.34;51.19
82013;BME280;71535;53.354;15.030;2023-07-29T10:36:54;100423.25;;;25.55;52.05
82013;BME280;71535;53.354;15.030;2023-07-29T10:39:20;100426.84;;;26.19;52.21
82013;BME280;71535;53.354;15.030;2023-07-29T10:41:59;100404.19;;;26.29;52.05
82013;BME280;71535;53.354;15.030;2023-07-29T10:47:12;100415.09;;;25.60;52.00
82013;BME280;71535;53.354;15.030;2023-07-29T10:49:40;100406.28;;;26.02;52.87
82013;BME280;71535;53.354;15.030;2023-07-29T10:52:06;100391.09;;;24.92;54.20
82013;BME280;71535;53.354;15.030;2023-07-29T10:54:44;100403.00;;;24.59;56.48
82013;BME280;71535;53.354;15.030;2023-07-29T10:57:14;100386.97;;;23.85;58.90
82013;BME280;71535;53.354;15.030;2023-07-29T10:59:41;100400.75;;;23.96;59.78
82013;BME280;71535;53.354;15.030;2023-07-29T11:02:17;100376.28;;;23.60;64.62
82013;BME280;71535;53.354;15.030;2023-07-29T11:04:49;100394.63;;;23.39;63.82
82013;BME280;71535;53.354;15.030;2023-07-29T11:15:03;100368.06;;;22.81;63.79
82013;BME280;71535;53.354;15.030;2023-07-29T11:17:32;100387.56;;;23.10;62.99
82013;BME280;71535;53.354;15.030;2023-07-29T11:20:00;100374.16;;;23.14;62.86
82013;BME280;71535;53.354;15.030;2023-07-29T11:22:26;100377.41;;;23.51;61.54
82013;BME280;71535;53.354;15.030;2023-07-29T11:24:52;100366.75;;;25.03;58.01
82013;BME280;71535;53.354;15.030;2023-07-29T11:27:17;100362.97;;;25.97;54.38
82013;BME280;71535;53.354;15.030;2023-07-29T11:29:43;100359.97;;;26.05;52.17
82013;BME280;71535;53.354;15.030;2023-07-29T11:32:09;100333.81;;;25.94;51.92
82013;BME280;71535;53.354;15.030;2023-07-29T11:34:35;100361.53;;;25.88;53.41
82013;BME280;71535;53.354;15.030;2023-07-29T11:37:00;100340.19;;;26.50;55.71
82013;BME280;71535;53.354;15.030;2023-07-29T11:39:26;100347.41;;;26.08;52.89
82013;BME280;71535;53.354;15.030;2023-07-29T11:41:51;100339.59;;;26.24;50.54
82013;BME280;71535;53.354;15.030;2023-07-29T11:44:17;100333.81;;;25.94;55.22
82013;BME280;71535;53.354;15.030;2023-07-29T11:46:43;100338.81;;;26.22;52.62
82013;BME280;71535;53.354;15.030;2023-07-29T11:49:09;100336.16;;;26.81;51.82
82013;BME280;71535;53.354;15.030;2023-07-29T11:51:34;100325.13;;;27.07;56.10
82013;BME280;71535;53.354;15.030;2023-07-29T11:54:00;100319.47;;;26.57;51.55
82013;BME280;71535;53.354;15.030;2023-07-29T11:56:26;100306.25;;;26.93;50.51
82013;BME280;71535;53.354;15.030;2023-07-29T11:58:53;100302.94;;;27.43;52.21
82013;BME280;71535;53.354;15.030;2023-07-29T12:01:19;100308.16;;;27.08;49.69
82013;BME280;71535;53.354;15.030;2023-07-29T12:03:44;100316.13;;;26.91;52.36
82013;BME280;71535;53.354;15.030;2023-07-29T12:06:10;100320.03;;;26.05;51.60
82013;BME280;71535;53.354;15.030;2023-07-29T12:08:37;100302.94;;;25.90;53.29
82013;BME280;71535;53.354;15.030;2023-07-29T12:11:03;100306.69;;;25.84;53.36
82013;BME280;71535;53.354;15.030;2023-07-29T12:13:29;100294.44;;;25.60;54.01
82013;BME280;71535;53.354;15.030;2023-07-29T12:16:04;100286.44;;;25.60;54.66
82013;BME280;71535;53.354;15.030;2023-07-29T12:18:31;100285.84;;;25.73;53.20
82013;BME280;71535;53.354;15.030;2023-07-29T12:20:57;100282.09;;;26.19;51.67
82013;BME280;71535;53.354;15.030;2023-07-29T12:23:26;100264.94;;;26.83;50.67
82013;BME280;71535;53.354;15.030;2023-07-29T12:25:58;100257.41;;;26.15;50.91
82013;BME280;71535;53.354;15.030;2023-07-29T12:28:24;100255.59;;;26.15;52.99
82013;BME280;71535;53.354;15.030;2023-07-29T12:30:54;100264.41;;;26.55;51.05
82013;BME280;71535;53.354;15.030;2023-07-29T12:33:34;100251.91;;;25.99;53.77
82013;BME280;71535;53.354;15.030;2023-07-29T12:36:00;100247.75;;;25.51;51.92
82013;BME280;71535;53.354;15.030;2023-07-29T12:38:26;100250.88;;;25.61;52.35
82013;BME280;71535;53.354;15.030;2023-07-29T12:40:52;100261.53;;;25.61;52.25
82013;BME280;71535;53.354;15.030;2023-07-29T12:43:17;100258.38;;;25.30;52.73
82013;BME280;71535;53.354;15.030;2023-07-29T12:45:43;100272.94;;;25.22;53.38
82013;BME280;71535;53.354;15.030;2023-07-29T12:48:09;100275.28;;;25.07;54.75
82013;BME280;71535;53.354;15.030;2023-07-29T12:50:35;100266.00;;;24.95;54.46
82013;BME280;71535;53.354;15.030;2023-07-29T12:53:01;100275.56;;;24.78;54.93
82013;BME280;71535;53.354;15.030;2023-07-29T12:55:26;100284.41;;;24.78;54.28